Time;durP1;ratioP1;P1;durP2;ratioP2;P2;SDS_P1;SDS_P2;PMS_P1;PMS_P2;Temp;Humidity;BMP_temperature;BMP_pressure;BME280_temperature;BME280_humidity;BME280_pressure;Samples;Min_cycle;Max_cycle;Signal;HPM_P1;HPM_P2
2021/05/18 00:01:42;;;;;;;;;;;;;;;20.31;44.02;99436.22;4394594;32;19964;-51
2021/05/18 00:04:08;;;;;;;;;;;;;;;20.28;43.81;99438.88;4402658;32;20350;-53
2021/05/18 00:06:34;;;;;;;;;;;;;;;20.33;43.82;99437.09;4403729;32;19946;-52
2021/05/18 00:11:46;;;;;;;;;;;;;;;20.31;44.00;99430.91;4414418;32;20298;-50
2021/05/18 00:14:12;;;;;;;;;;;;;;;20.33;44.05;99434.47;4428277;32;20395;-49
2021/05/18 00:16:38;;;;;;;;;;;;;;;20.30;43.93;99439.75;4433735;32;19949;-50
2021/05/18 00:19:04;;;;;;;;;;;;;;;20.24;44.05;99439.75;4419964;32;19991;-53
2021/05/18 00:21:29;;;;;;;;;;;;;;;20.23;43.95;99444.16;4418512;32;19938;-49
2021/05/18 00:23:55;;;;;;;;;;;;;;;20.29;43.76;99438.88;4418381;32;20521;-51
2021/05/18 00:26:21;;;;;;;;;;;;;;;20.34;43.81;99446.81;4403952;32;20002;-50
2021/05/18 00:28:47;;;;;;;;;;;;;;;20.27;43.77;99445.94;4408839;32;19950;-47
2021/05/18 00:31:13;;;;;;;;;;;;;;;20.28;43.91;99441.50;4403019;32;19967;-51
2021/05/18 00:33:42;;;;;;;;;;;;;;;20.31;43.57;99442.38;4410627;32;20327;-47
2021/05/18 00:36:08;;;;;;;;;;;;;;;20.29;43.83;99438.88;4417720;32;19969;-51
2021/05/18 00:38:33;;;;;;;;;;;;;;;20.32;43.94;99449.44;4417400;32;19950;-53
2021/05/18 00:40:59;;;;;;;;;;;;;;;20.26;44.14;99449.47;4417607;32;20414;-49
2021/05/18 00:43:25;;;;;;;;;;;;;;;20.29;43.83;99461.78;4417416;32;19989;-53
2021/05/18 00:45:51;;;;;;;;;;;;;;;20.29;43.88;99464.41;4418017;32;19973;-50
2021/05/18 00:48:17;;;;;;;;;;;;;;;20.31;43.47;99467.94;4413979;32;20598;-50
2021/05/18 00:50:43;;;;;;;;;;;;;;;20.32;44.02;99470.59;4402390;32;19968;-48
2021/05/18 00:53:09;;;;;;;;;;;;;;;20.31;43.70;99467.94;4404881;32;19954;-48
2021/05/18 00:55:44;;;;;;;;;;;;;;;20.28;44.15;99475.87;4417680;32;19950;-50
2021/05/18 01:01:17;;;;;;;;;;;;;;;20.27;43.79;99469.72;4384338;32;20053;-47
2021/05/18 01:03:43;;;;;;;;;;;;;;;20.27;43.81;99472.38;4384043;32;20281;-49
2021/05/18 01:06:25;;;;;;;;;;;;;;;20.28;43.66;99467.94;4407419;32;19980;-53
2021/05/18 01:08:51;;;;;;;;;;;;;;;20.27;43.91;99467.09;4426492;32;20568;-51
2021/05/18 01:11:17;;;;;;;;;;;;;;;20.29;43.89;99470.59;4419017;32;20001;-52
2021/05/18 01:13:43;;;;;;;;;;;;;;;20.28;43.93;99475.87;4422247;32;19951;-53
2021/05/18 01:16:09;;;;;;;;;;;;;;;20.18;44.19;99467.94;4408724;32;20048;-49
2021/05/18 01:18:35;;;;;;;;;;;;;;;20.24;43.87;99466.19;4420290;32;19950;-51
2021/05/18 01:21:01;;;;;;;;;;;;;;;20.19;43.95;99474.13;4402553;32;19958;-48
2021/05/18 01:23:27;;;;;;;;;;;;;;;20.18;44.08;99470.59;4403511;32;19965;-48
2021/05/18 01:25:53;;;;;;;;;;;;;;;20.21;43.90;99467.06;4417571;32;20335;-47
2021/05/18 01:28:19;;;;;;;;;;;;;;;20.24;44.16;99468.84;4416998;32;19988;-51
2021/05/18 01:30:45;;;;;;;;;;;;;;;20.22;43.89;99466.19;4402272;32;20002;-53
2021/05/18 01:33:10;;;;;;;;;;;;;;;20.21;43.73;99464.44;4402072;32;19951;-51
2021/05/18 01:35:36;;;;;;;;;;;;;;;20.24;43.93;99472.34;4416154;32;20268;-47
2021/05/18 01:38:05;;;;;;;;;;;;;;;20.23;43.80;99475.87;4417479;32;20780;-52
2021/05/18 01:43:10;;;;;;;;;;;;;;;20.25;43.81;99481.19;4423009;32;19993;-50
2021/05/18 01:45:35;;;;;;;;;;;;;;;20.20;43.95;99482.06;4404433;32;20609;-51
2021/05/18 01:48:03;;;;;;;;;;;;;;;20.21;43.87;99483.84;4419952;32;19991;-49
2021/05/18 01:50:29;;;;;;;;;;;;;;;20.20;43.78;99487.38;4404914;32;19980;-50
2021/05/18 01:52:55;;;;;;;;;;;;;;;20.22;43.64;99488.25;4402098;32;19946;-50
2021/05/18 01:56:18;;;;;;;;;;;;;;;20.22;43.64;99489.97;4413158;32;20335;-50
2021/05/18 01:58:09;;;;;;;;;;;;;;;20.17;43.88;99499.69;4412508;32;20370;-51
2021/05/18 02:00:35;;;;;;;;;;;;;;;20.16;43.84;99490.00;4411407;32;19954;-48
2021/05/18 02:03:01;;;;;;;;;;;;;;;20.21;43.69;99491.75;4401830;32;19958;-49
2021/05/18 02:05:27;;;;;;;;;;;;;;;20.22;43.60;99496.16;4413662;32;20496;-47
2021/05/18 02:07:53;;;;;;;;;;;;;;;20.22;43.72;99501.44;4425254;32;19938;-47
2021/05/18 02:10:19;;;;;;;;;;;;;;;20.18;43.89;99499.69;4409017;32;19969;-49
2021/05/18 02:12:45;;;;;;;;;;;;;;;20.19;43.77;99498.81;4402004;32;20005;-51
2021/05/18 02:15:22;;;;;;;;;;;;;;;20.22;43.53;99506.75;4407849;32;19954;-50
2021/05/18 02:17:55;;;;;;;;;;;;;;;20.24;43.53;99503.22;4417301;32;20014;-51
2021/05/18 02:20:33;;;;;;;;;;;;;;;20.19;43.65;99501.47;4417566;32;19958;-50
2021/05/18 02:25:43;;;;;;;;;;;;;;;20.18;43.73;99514.66;4422870;32;19988;-50
2021/05/18 02:28:09;;;;;;;;;;;;;;;20.16;43.93;99522.59;4416883;32;19946;-48
2021/05/18 02:30:37;;;;;;;;;;;;;;;20.13;44.09;99517.31;4413732;32;19996;-49
2021/05/18 02:33:04;;;;;;;;;;;;;;;20.16;43.70;99517.31;4402098;32;20351;-47
2021/05/18 02:35:30;;;;;;;;;;;;;;;20.18;43.63;99518.19;4408407;32;20038;-49
2021/05/18 02:37:55;;;;;;;;;;;;;;;20.21;43.64;99509.38;4416879;32;19950;-50
2021/05/18 02:40:22;;;;;;;;;;;;;;;20.20;43.71;99513.78;4415715;32;19974;-49
2021/05/18 02:42:48;;;;;;;;;;;;;;;20.19;43.51;99514.69;4416270;32;20025;-50
2021/05/18 02:50:25;;;;;;;;;;;;;;;20.20;43.70;99512.91;4417548;32;20382;-52
2021/05/18 02:52:51;;;;;;;;;;;;;;;20.17;43.60;99516.41;4402030;32;19984;-51
2021/05/18 02:55:25;;;;;;;;;;;;;;;20.20;43.90;99513.78;4403489;32;19958;-50
2021/05/18 02:57:52;;;;;;;;;;;;;;;20.19;43.69;99517.31;4423137;32;19954;-50
2021/05/18 03:00:18;;;;;;;;;;;;;;;20.19;43.62;99517.31;4418703;32;19974;-48
2021/05/18 03:02:44;;;;;;;;;;;;;;;20.20;43.60;99515.53;4401965;32;19996;-50
2021/05/18 03:05:10;;;;;;;;;;;;;;;20.17;43.85;99519.06;4402147;32;19973;-50
2021/05/18 03:07:36;;;;;;;;;;;;;;;20.17;43.69;99529.63;4416734;32;19950;-53
2021/05/18 03:10:02;;;;;;;;;;;;;;;20.16;43.86;99538.44;4414947;32;19954;-53
2021/05/18 03:12:28;;;;;;;;;;;;;;;20.16;43.61;99535.81;4416973;32;20350;-51
2021/05/18 03:14:54;;;;;;;;;;;;;;;20.14;43.91;99524.34;4423031;32;19965;-51
2021/05/18 03:17:20;;;;;;;;;;;;;;;20.16;43.65;99522.59;4410956;32;20370;-50
2021/05/18 03:19:46;;;;;;;;;;;;;;;20.14;43.77;99524.34;4425423;32;19957;-49
2021/05/18 03:22:12;;;;;;;;;;;;;;;20.13;43.77;99525.25;4412875;32;20306;-49
2021/05/18 03:24:41;;;;;;;;;;;;;;;20.15;43.55;99526.13;4403619;32;19966;-50
2021/05/18 03:27:08;;;;;;;;;;;;;;;20.11;43.83;99527.00;4416081;32;19958;-51
2021/05/18 03:29:34;;;;;;;;;;;;;;;20.13;43.57;99519.97;4427835;32;19969;-48
2021/05/18 03:34:45;;;;;;;;;;;;;;;20.14;43.68;99532.28;4414554;32;19957;-50
2021/05/18 03:37:25;;;;;;;;;;;;;;;20.13;43.63;99533.16;4429993;32;19950;-50
2021/05/18 03:39:53;;;;;;;;;;;;;;;20.10;43.72;99535.81;4433954;32;20354;-51
2021/05/18 03:44:57;;;;;;;;;;;;;;;20.17;43.60;99534.06;4434089;32;20305;-49
2021/05/18 04:03:27;;;;;;;;;;;;;;;20.14;43.64;99550.78;4417673;32;19980;-53
2021/05/18 04:24:18;;;;;;;;;;;;;;;20.08;43.59;99579.88;4418097;32;19961;-52
2021/05/18 04:38:33;;;;;;;;;;;;;;;20.08;43.71;99582.53;4418293;32;19960;-51
2021/05/18 04:48:15;;;;;;;;;;;;;;;20.06;43.62;99597.47;4408531;32;20365;-49
2021/05/18 04:51:55;;;;;;;;;;;;;;;20.06;43.56;99595.72;4427650;32;19968;-48
2021/05/18 04:59:54;;;;;;;;;;;;;;;20.07;43.53;99597.47;4423784;32;20034;-51
2021/05/18 05:07:54;;;;;;;;;;;;;;;20.11;43.19;99608.94;4424823;32;19983;-47
2021/05/18 05:10:27;;;;;;;;;;;;;;;20.10;43.35;99617.75;4423816;32;20000;-53
2021/05/18 05:15:31;;;;;;;;;;;;;;;20.12;42.98;99617.75;4423538;32;19957;-48
2021/05/18 05:17:57;;;;;;;;;;;;;;;20.08;43.37;99620.37;4424832;32;20019;-48
2021/05/18 05:20:23;;;;;;;;;;;;;;;20.08;43.46;99630.97;4425088;32;20042;-50
2021/05/18 05:22:49;;;;;;;;;;;;;;;20.11;43.43;99624.81;4425195;32;20386;-50
2021/05/18 05:25:15;;;;;;;;;;;;;;;20.15;43.26;99626.56;4425958;32;19954;-51
2021/05/18 05:27:40;;;;;;;;;;;;;;;20.15;43.17;99629.22;4424271;32;20381;-51
2021/05/18 05:30:06;;;;;;;;;;;;;;;20.16;43.32;99633.63;4424802;32;19980;-50
2021/05/18 05:32:32;;;;;;;;;;;;;;;20.17;43.16;99634.50;4424860;32;19987;-50
2021/05/18 05:34:58;;;;;;;;;;;;;;;20.17;43.09;99624.78;4426065;32;20039;-50
2021/05/18 05:37:25;;;;;;;;;;;;;;;20.16;43.17;99633.63;4424822;32;19950;-49
2021/05/18 05:39:51;;;;;;;;;;;;;;;20.16;43.24;99628.31;4425187;32;19971;-50
2021/05/18 05:42:17;;;;;;;;;;;;;;;20.19;43.06;99633.63;4424698;32;19982;-49
2021/05/18 05:44:43;;;;;;;;;;;;;;;20.22;43.06;99638.94;4416178;32;19956;-49
2021/05/18 05:47:09;;;;;;;;;;;;;;;20.22;42.71;99631.00;4424879;32;19946;-49
2021/05/18 05:49:35;;;;;;;;;;;;;;;20.20;42.80;99635.41;4424254;32;19961;-50
2021/05/18 05:52:01;;;;;;;;;;;;;;;20.21;42.83;99630.97;4424056;32;19957;-47
2021/05/18 05:54:27;;;;;;;;;;;;;;;20.21;42.84;99631.88;4423673;32;19957;-49
2021/05/18 05:56:52;;;;;;;;;;;;;;;20.26;42.80;99623.06;4434069;32;19972;-51
2021/05/18 05:59:19;;;;;;;;;;;;;;;20.27;42.68;99619.53;4432101;32;19950;-48
2021/05/18 06:01:47;;;;;;;;;;;;;;;20.25;42.72;99614.25;4431495;32;19985;-52
2021/05/18 06:04:13;;;;;;;;;;;;;;;20.24;42.96;99617.75;4425681;32;19951;-51
2021/05/18 06:06:38;;;;;;;;;;;;;;;20.26;42.98;99616.03;4426123;32;19938;-48
2021/05/18 06:09:05;;;;;;;;;;;;;;;20.21;43.00;99623.03;4423473;32;20330;-51
2021/05/18 06:14:14;;;;;;;;;;;;;;;20.31;42.75;99618.63;4424618;32;20334;-48
2021/05/18 06:41:17;;;;;;;;;;;;;;;20.29;42.92;99634.53;4417020;32;19984;-49
2021/05/18 06:46:17;;;;;;;;;;;;;;;20.33;42.82;99646.00;4424894;32;20268;-50
2021/05/18 06:48:43;;;;;;;;;;;;;;;20.35;42.89;99655.66;4418556;32;19995;-48
2021/05/18 06:51:09;;;;;;;;;;;;;;;20.34;42.88;99656.56;4431440;32;19977;-49
2021/05/18 06:53:35;;;;;;;;;;;;;;;20.33;42.94;99651.28;4422008;32;19991;-49
2021/05/18 06:56:02;;;;;;;;;;;;;;;20.34;43.22;99663.63;4426931;32;19957;-58
2021/05/18 06:58:46;;;;;;;;;;;;;;;19.53;44.54;99658.06;4424991;32;19954;-56
2021/05/18 07:01:12;;;;;;;;;;;;;;;19.23;44.98;99659.69;4421312;32;19975;-58
2021/05/18 07:03:44;;;;;;;;;;;;;;;18.97;45.29;99657.72;4404280;32;20332;-57
2021/05/18 07:06:25;;;;;;;;;;;;;;;18.69;46.06;99678.59;4417855;32;20007;-59
2021/05/18 07:11:17;;;;;;;;;;;;;;;18.50;46.75;99667.03;4418736;32;19972;-59
2021/05/18 07:13:43;;;;;;;;;;;;;;;18.31;46.99;99674.78;4419059;32;19954;-59
2021/05/18 07:16:09;;;;;;;;;;;;;;;18.28;47.19;99679.13;4419160;32;19991;-59
2021/05/18 07:18:35;;;;;;;;;;;;;;;18.45;46.53;99674.88;4418366;32;19972;-59
2021/05/18 07:21:02;;;;;;;;;;;;;;;18.23;47.39;99674.72;4419721;32;20527;-58
2021/05/18 07:23:28;;;;;;;;;;;;;;;18.21;47.64;99679.09;4417945;32;20002;-58
2021/05/18 07:25:54;;;;;;;;;;;;;;;18.26;47.45;99680.00;4419065;32;19950;-59
2021/05/18 07:28:20;;;;;;;;;;;;;;;17.74;47.70;99677.62;4418300;32;20333;-58
2021/05/18 07:30:46;;;;;;;;;;;;;;;17.89;47.56;99676.94;4418346;32;20296;-59
2021/05/18 07:33:12;;;;;;;;;;;;;;;17.69;48.69;99677.56;4418293;32;20017;-59
2021/05/18 07:35:38;;;;;;;;;;;;;;;17.45;49.25;99678.16;4417687;32;19954;-58
2021/05/18 07:38:04;;;;;;;;;;;;;;;17.67;48.80;99678.44;4417948;32;19962;-61
2021/05/18 07:40:29;;;;;;;;;;;;;;;17.81;48.65;99675.94;4417784;32;19981;-59
2021/05/18 07:42:55;;;;;;;;;;;;;;;18.09;48.56;99681.59;4418838;32;19991;-58
2021/05/18 07:45:25;;;;;;;;;;;;;;;18.04;48.55;99680.63;4418107;32;19984;-59
2021/05/18 07:47:52;;;;;;;;;;;;;;;17.83;49.38;99696.19;4418076;32;19962;-59
2021/05/18 07:50:24;;;;;;;;;;;;;;;18.12;49.18;99671.06;4416704;32;19983;-60
2021/05/18 08:02:20;;;;;;;;;;;;;;;19.31;48.78;99679.06;4408632;32;20594;-61
2021/05/18 08:06:46;;;;;;;;;;;;;;;19.34;48.39;99673.84;4414546;32;19984;-61
2021/05/18 08:09:12;;;;;;;;;;;;;;;19.77;47.33;99666.97;4430505;32;19934;-59
2021/05/18 08:11:38;;;;;;;;;;;;;;;19.50;46.05;99658.06;4422287;32;20764;-62
2021/05/18 08:14:04;;;;;;;;;;;;;;;19.00;46.64;99660.41;4417709;32;19969;-62
2021/05/18 08:47:27;;;;;;;;;;;;;;;18.44;44.91;99651.16;4431993;32;19984;-60
2021/05/18 10:18:43;;;;;;;;;;;;;;;19.75;41.61;99623.81;4431586;32;20303;-53
2021/05/18 10:35:01;;;;;;;;;;;;;;;20.03;41.47;99598.38;4416740;32;19986;-52
2021/05/18 10:37:34;;;;;;;;;;;;;;;20.06;41.37;99611.59;4417012;32;19957;-55
2021/05/18 10:40:00;;;;;;;;;;;;;;;20.03;41.63;99605.41;4431159;32;19993;-52
2021/05/18 10:42:25;;;;;;;;;;;;;;;20.05;41.44;99604.53;4432258;32;20365;-51
2021/05/18 10:44:51;;;;;;;;;;;;;;;20.10;41.43;99606.28;4431884;32;19987;-51
2021/05/18 10:47:17;;;;;;;;;;;;;;;20.13;41.54;99617.75;4431495;32;19958;-53
2021/05/18 10:49:43;;;;;;;;;;;;;;;20.07;41.52;99623.91;4417986;32;20315;-54
2021/05/18 10:52:09;;;;;;;;;;;;;;;20.13;41.54;99612.47;4416485;32;19947;-53
2021/05/18 10:54:35;;;;;;;;;;;;;;;20.10;41.59;99612.47;4429097;32;20007;-52
2021/05/18 10:57:01;;;;;;;;;;;;;;;20.02;42.03;99614.22;4432084;32;19957;-56
2021/05/18 10:59:27;;;;;;;;;;;;;;;20.05;41.86;99630.97;4420057;32;20000;-53
2021/05/18 11:01:53;;;;;;;;;;;;;;;20.16;41.70;99633.63;4416925;32;19965;-54
2021/05/18 11:04:19;;;;;;;;;;;;;;;20.22;41.44;99641.56;4426076;32;19957;-53
2021/05/18 11:06:45;;;;;;;;;;;;;;;20.24;41.60;99645.97;4419505;32;20331;-54
2021/05/18 11:09:11;;;;;;;;;;;;;;;20.28;41.72;99647.72;4423342;32;19953;-54
2021/05/18 11:11:37;;;;;;;;;;;;;;;20.33;41.34;99651.28;4431136;32;19950;-52
2021/05/18 11:14:03;;;;;;;;;;;;;;;20.32;41.33;99665.37;4430772;32;20310;-54
2021/05/18 11:16:29;;;;;;;;;;;;;;;20.32;41.42;99652.16;4431347;32;19953;-55
2021/05/18 11:18:55;;;;;;;;;;;;;;;20.29;41.39;99653.03;4425825;32;19954;-54
2021/05/18 11:21:21;;;;;;;;;;;;;;;20.20;41.47;99655.66;4401556;32;19974;-53
2021/05/18 11:23:47;;;;;;;;;;;;;;;20.27;41.60;99653.91;4405326;32;19954;-51
2021/05/18 11:26:13;;;;;;;;;;;;;;;20.30;41.44;99651.25;4403192;32;19955;-55
2021/05/18 11:28:40;;;;;;;;;;;;;;;20.22;41.57;99638.94;4403223;32;19957;-52
2021/05/18 11:31:06;;;;;;;;;;;;;;;20.17;41.84;99638.03;4414934;32;20011;-53
2021/05/18 11:33:32;;;;;;;;;;;;;;;20.09;41.95;99637.16;4415311;32;19954;-54
2021/05/18 11:35:57;;;;;;;;;;;;;;;20.22;41.80;99627.44;4405769;32;19954;-54
2021/05/18 11:38:23;;;;;;;;;;;;;;;20.26;41.68;99628.34;4415651;32;19972;-52
2021/05/18 11:40:50;;;;;;;;;;;;;;;20.24;41.78;99630.13;4418750;32;19983;-51
2021/05/18 11:43:16;;;;;;;;;;;;;;;20.16;42.05;99628.31;4419184;32;19955;-53
2021/05/18 11:45:42;;;;;;;;;;;;;;;20.28;41.72;99626.56;4405293;32;19995;-50
2021/05/18 11:48:08;;;;;;;;;;;;;;;20.32;41.69;99637.16;4403359;32;19965;-53
2021/05/18 11:50:34;;;;;;;;;;;;;;;20.29;41.70;99630.97;4415290;32;19982;-54
2021/05/18 11:53:00;;;;;;;;;;;;;;;20.34;41.61;99626.59;4419448;32;19977;-54
2021/05/18 11:55:26;;;;;;;;;;;;;;;20.43;41.38;99620.44;4406807;32;20299;-52
2021/05/18 11:57:53;;;;;;;;;;;;;;;20.46;41.36;99621.31;4403692;32;19991;-54
2021/05/18 12:00:19;;;;;;;;;;;;;;;20.46;41.52;99618.66;4413009;32;20370;-56
2021/05/18 12:02:44;;;;;;;;;;;;;;;20.46;41.46;99616.03;4419112;32;20049;-51
2021/05/18 12:05:10;;;;;;;;;;;;;;;20.46;41.33;99610.72;4408720;32;20346;-51
2021/05/18 12:07:36;;;;;;;;;;;;;;;20.46;41.46;99615.13;4404094;32;19938;-56
2021/05/18 12:10:02;;;;;;;;;;;;;;;20.49;41.40;99623.94;4415941;32;19942;-51
2021/05/18 12:12:28;;;;;;;;;;;;;;;20.49;41.35;99615.13;4417581;32;21507;-54
2021/05/18 12:14:55;;;;;;;;;;;;;;;20.50;41.30;99609.84;4412583;32;19951;-53
2021/05/18 12:17:21;;;;;;;;;;;;;;;20.53;41.33;99613.34;4403436;32;20000;-53
2021/05/18 12:19:46;;;;;;;;;;;;;;;20.60;41.20;99617.78;4407396;32;19955;-54
2021/05/18 12:22:12;;;;;;;;;;;;;;;20.56;41.42;99627.47;4418315;32;19969;-51
2021/05/18 12:24:38;;;;;;;;;;;;;;;20.54;41.33;99623.06;4414665;32;20003;-55
2021/05/18 12:27:04;;;;;;;;;;;;;;;20.57;41.36;99634.53;4403378;32;19946;-50
2021/05/18 12:29:30;;;;;;;;;;;;;;;20.58;41.54;99627.47;4404579;32;19946;-52
2021/05/18 12:31:56;;;;;;;;;;;;;;;20.58;41.20;99630.13;4418012;32;20335;-52
2021/05/18 12:34:22;;;;;;;;;;;;;;;20.58;41.38;99620.41;4417671;32;20581;-52
2021/05/18 12:36:48;;;;;;;;;;;;;;;20.71;41.43;99617.75;4403736;32;20002;-53
2021/05/18 12:39:14;;;;;;;;;;;;;;;20.69;41.17;99620.44;4402051;32;19965;-56
2021/05/18 12:41:40;;;;;;;;;;;;;;;20.77;41.21;99615.13;4417740;32;20568;-53
2021/05/18 12:44:06;;;;;;;;;;;;;;;20.73;41.05;99619.53;4417887;32;20014;-53
2021/05/18 12:46:32;;;;;;;;;;;;;;;20.69;41.17;99628.37;4414178;32;19971;-54
2021/05/18 12:48:57;;;;;;;;;;;;;;;20.71;41.20;99623.03;4417584;32;19970;-59
2021/05/18 12:51:27;;;;;;;;;;;;;;;20.83;40.97;99630.13;4416475;32;19968;-54
2021/05/18 12:53:53;;;;;;;;;;;;;;;20.36;41.77;99635.41;4414278;32;20344;-54
2021/05/18 12:56:19;;;;;;;;;;;;;;;20.48;42.13;99639.81;4405887;32;19990;-53
2021/05/18 12:58:45;;;;;;;;;;;;;;;20.79;41.80;99632.72;4401732;32;20013;-54
2021/05/18 13:01:11;;;;;;;;;;;;;;;20.93;41.75;99626.59;4410187;32;20013;-54
2021/05/18 13:03:38;;;;;;;;;;;;;;;20.97;41.85;99623.06;4417479;32;20432;-54
2021/05/18 13:06:04;;;;;;;;;;;;;;;20.99;41.87;99623.94;4408434;32;19961;-51
2021/05/18 13:08:30;;;;;;;;;;;;;;;21.03;41.96;99617.72;4401275;32;19970;-54
2021/05/18 13:13:27;;;;;;;;;;;;;;;21.05;42.02;99615.97;4407430;32;19946;-51
2021/05/18 13:15:53;;;;;;;;;;;;;;;21.10;41.84;99613.28;4406847;32;19983;-52
2021/05/18 13:18:19;;;;;;;;;;;;;;;21.16;41.82;99617.69;4417601;32;20025;-54
2021/05/18 13:20:45;;;;;;;;;;;;;;;21.21;41.82;99615.94;4416488;32;19957;-54
2021/05/18 13:23:20;;;;;;;;;;;;;;;21.23;41.59;99616.81;4415743;32;19955;-50
2021/05/18 13:28:31;;;;;;;;;;;;;;;21.37;41.30;99621.16;4411256;32;20020;-53
2021/05/18 13:30:57;;;;;;;;;;;;;;;21.44;41.22;99625.56;4416237;32;20005;-50
2021/05/18 13:33:22;;;;;;;;;;;;;;;21.45;41.08;99625.53;4416889;32;20417;-52
2021/05/18 13:35:48;;;;;;;;;;;;;;;21.50;40.89;99627.31;4416157;32;19946;-52
2021/05/18 13:38:14;;;;;;;;;;;;;;;21.55;40.67;99621.09;4417370;32;19950;-52
2021/05/18 13:40:40;;;;;;;;;;;;;;;21.57;40.49;99619.31;4417424;32;20384;-53
2021/05/18 13:43:06;;;;;;;;;;;;;;;21.60;40.63;99639.59;4417364;32;19978;-48
2021/05/18 13:45:32;;;;;;;;;;;;;;;21.66;40.40;99654.59;4418151;32;19958;-52
2021/05/18 13:47:58;;;;;;;;;;;;;;;21.68;40.26;99647.56;4417669;32;20338;-55
2021/05/18 13:50:24;;;;;;;;;;;;;;;21.70;40.19;99645.78;4414878;32;20358;-52
2021/05/18 13:52:50;;;;;;;;;;;;;;;21.71;40.19;99639.59;4416734;32;19985;-51
2021/05/18 13:55:16;;;;;;;;;;;;;;;21.72;39.81;99662.56;4416315;32;20517;-53
2021/05/18 13:57:42;;;;;;;;;;;;;;;21.66;40.09;99665.19;4416978;32;19962;-53
2021/05/18 14:00:09;;;;;;;;;;;;;;;21.69;39.77;99681.13;4415747;32;19965;-53
2021/05/18 14:02:36;;;;;;;;;;;;;;;21.68;39.58;99682.03;4416446;32;19958;-53
2021/05/18 14:05:02;;;;;;;;;;;;;;;21.67;39.89;99694.38;4415921;32;20291;-52
2021/05/18 14:09:55;;;;;;;;;;;;;;;21.66;39.97;99676.72;4414881;32;19958;-53
2021/05/18 14:12:21;;;;;;;;;;;;;;;21.63;39.76;99671.41;4416176;32;19977;-50
2021/05/18 14:14:47;;;;;;;;;;;;;;;21.59;39.76;99665.22;4416287;32;19942;-50
2021/05/18 14:17:13;;;;;;;;;;;;;;;21.58;39.94;99666.13;4414603;32;19951;-52
2021/05/18 14:19:38;;;;;;;;;;;;;;;21.57;40.26;99661.72;4415228;32;19969;-55
2021/05/18 14:22:06;;;;;;;;;;;;;;;21.61;40.20;99667.88;4415341;32;19969;-49
2021/05/18 14:24:51;;;;;;;;;;;;;;;21.60;40.01;99651.09;4415436;32;19984;-56
2021/05/18 14:27:20;;;;;;;;;;;;;;;21.60;40.23;99651.09;4408867;32;19950;-52
2021/05/18 14:29:46;;;;;;;;;;;;;;;21.60;40.23;99653.75;4398348;32;19955;-55
2021/05/18 14:32:12;;;;;;;;;;;;;;;21.59;40.28;99644.03;4413285;32;19981;-54
2021/05/18 14:34:38;;;;;;;;;;;;;;;21.59;40.47;99656.38;4415543;32;19992;-53
2021/05/18 14:37:04;;;;;;;;;;;;;;;21.60;40.35;99643.16;4410585;32;19947;-50
2021/05/18 14:39:47;;;;;;;;;;;;;;;21.61;40.27;99641.41;4399809;32;19939;-55
2021/05/18 14:44:58;;;;;;;;;;;;;;;21.62;40.42;99637.84;4415272;32;19999;-52
2021/05/18 14:47:26;;;;;;;;;;;;;;;21.60;40.49;99624.59;4409162;32;19962;-53
2021/05/18 14:55:24;;;;;;;;;;;;;;;21.65;40.56;99626.34;4415439;32;19984;-55
2021/05/18 14:57:50;;;;;;;;;;;;;;;21.71;40.47;99623.72;4415701;32;19950;-54
2021/05/18 15:00:16;;;;;;;;;;;;;;;21.81;40.26;99620.13;4414361;32;19964;-55
2021/05/18 15:02:42;;;;;;;;;;;;;;;21.95;40.13;99627.97;4409153;32;19962;-54
2021/05/18 15:05:08;;;;;;;;;;;;;;;22.01;39.97;99629.72;4400183;32;19958;-53
2021/05/18 15:07:34;;;;;;;;;;;;;;;22.02;39.97;99623.50;4403645;32;19973;-54
2021/05/18 15:10:00;;;;;;;;;;;;;;;22.07;39.87;99616.44;4413862;32;19989;-54
2021/05/18 15:12:26;;;;;;;;;;;;;;;22.13;39.86;99621.66;4411468;32;20376;-49
2021/05/18 15:14:52;;;;;;;;;;;;;;;22.18;39.80;99622.53;4400966;32;20002;-54
2021/05/18 15:17:18;;;;;;;;;;;;;;;22.21;39.76;99620.75;4404794;32;19959;-52
2021/05/18 15:19:45;;;;;;;;;;;;;;;22.22;39.80;99619.84;4417175;32;20418;-52
2021/05/18 15:22:11;;;;;;;;;;;;;;;22.26;39.68;99621.59;4417528;32;19954;-52
2021/05/18 15:24:37;;;;;;;;;;;;;;;22.30;39.75;99610.06;4417980;32;19995;-53
2021/05/18 15:27:05;;;;;;;;;;;;;;;22.33;39.64;99620.66;4417893;32;19950;-55
2021/05/18 15:29:31;;;;;;;;;;;;;;;22.28;39.86;99607.44;4416812;32;19972;-52
2021/05/18 15:31:57;;;;;;;;;;;;;;;22.37;39.79;99610.91;4418500;32;20305;-54
2021/05/18 15:34:23;;;;;;;;;;;;;;;22.36;39.78;99612.66;4416785;32;20041;-54
2021/05/18 15:36:49;;;;;;;;;;;;;;;22.32;40.00;99618.91;4417427;32;20011;-49
2021/05/18 15:39:15;;;;;;;;;;;;;;;22.31;40.02;99604.75;4405576;32;19955;-54
2021/05/18 15:41:40;;;;;;;;;;;;;;;22.35;39.90;99613.56;4403143;32;20016;-53
2021/05/18 15:44:07;;;;;;;;;;;;;;;22.36;39.94;99615.31;4412634;32;19988;-49
2021/05/18 15:46:33;;;;;;;;;;;;;;;22.38;39.86;99616.19;4417133;32;19974;-53
2021/05/18 15:48:59;;;;;;;;;;;;;;;22.35;39.99;99623.28;4411134;32;19954;-57
2021/05/18 15:51:25;;;;;;;;;;;;;;;22.35;40.06;99618.88;4416343;32;19980;-57
2021/05/18 15:53:51;;;;;;;;;;;;;;;21.87;39.39;99616.56;4416862;32;19958;-56
2021/05/18 15:56:17;;;;;;;;;;;;;;;21.45;39.92;99620.25;4417274;32;19951;-56
2021/05/18 15:58:44;;;;;;;;;;;;;;;21.17;40.06;99622.09;4416832;32;19970;-58
2021/05/18 16:01:09;;;;;;;;;;;;;;;20.89;40.12;99622.19;4417617;32;19957;-56
2021/05/18 16:03:35;;;;;;;;;;;;;;;20.79;40.11;99624.78;4412016;32;19959;-55
2021/05/18 16:06:03;;;;;;;;;;;;;;;20.72;40.35;99636.28;4402032;32;19984;-56
2021/05/18 16:10:55;;;;;;;;;;;;;;;20.72;40.94;99627.47;4432923;32;20010;-56
2021/05/18 16:13:21;;;;;;;;;;;;;;;20.28;40.41;99630.13;4429049;32;19973;-55
2021/05/18 16:15:47;;;;;;;;;;;;;;;20.04;41.16;99633.59;4417430;32;19950;-55
2021/05/18 16:18:13;;;;;;;;;;;;;;;19.84;41.57;99625.59;4417534;32;19950;-56
2021/05/18 16:20:38;;;;;;;;;;;;;;;19.79;40.64;99631.75;4416884;32;19950;-55
2021/05/18 16:23:05;;;;;;;;;;;;;;;19.63;40.09;99624.62;4418594;32;19997;-55
2021/05/18 16:25:31;;;;;;;;;;;;;;;19.61;41.29;99619.37;4432841;32;19960;-54
2021/05/18 16:27:57;;;;;;;;;;;;;;;19.89;42.13;99629.16;4433509;32;20569;-54
2021/05/18 16:30:23;;;;;;;;;;;;;;;19.85;41.52;99622.06;4418476;32;20041;-57
2021/05/18 16:32:49;;;;;;;;;;;;;;;19.88;41.40;99617.69;4418111;32;20365;-55
2021/05/18 16:35:15;;;;;;;;;;;;;;;19.99;40.69;99619.50;4419226;32;19956;-55
2021/05/18 16:37:40;;;;;;;;;;;;;;;19.99;40.03;99619.50;4433605;32;19984;-56
2021/05/18 16:40:06;;;;;;;;;;;;;;;20.26;39.69;99623.06;4421196;32;19969;-55
2021/05/18 16:42:35;;;;;;;;;;;;;;;20.07;40.20;99623.06;4418327;32;19992;-54
2021/05/18 16:45:00;;;;;;;;;;;;;;;20.12;39.59;99631.84;4428019;32;20025;-54
2021/05/18 16:47:26;;;;;;;;;;;;;;;20.06;39.47;99626.53;4432350;32;20296;-55
2021/05/18 16:49:52;;;;;;;;;;;;;;;20.18;39.44;99621.28;4423898;32;19996;-56
2021/05/18 16:52:18;;;;;;;;;;;;;;;20.05;40.06;99624.78;4417902;32;20079;-56
2021/05/18 16:54:44;;;;;;;;;;;;;;;20.03;39.18;99626.53;4424798;32;19950;-56
2021/05/18 16:57:10;;;;;;;;;;;;;;;20.03;39.52;99631.84;4433736;32;19993;-56
2021/05/18 16:59:36;;;;;;;;;;;;;;;20.14;39.69;99635.37;4432862;32;20003;-56
2021/05/18 17:02:02;;;;;;;;;;;;;;;20.01;39.82;99629.19;4433003;32;20357;-53
2021/05/18 17:04:28;;;;;;;;;;;;;;;19.87;39.86;99636.16;4428310;32;20004;-50
2021/05/18 17:06:55;;;;;;;;;;;;;;;19.42;40.78;99641.28;4418509;32;19950;-55
2021/05/18 17:09:20;;;;;;;;;;;;;;;19.34;41.39;99636.88;4419840;32;19989;-57
2021/05/18 17:11:46;;;;;;;;;;;;;;;19.20;42.74;99644.69;4432936;32;19988;-58
2021/05/18 17:14:12;;;;;;;;;;;;;;;19.35;41.87;99643.00;4427525;32;19954;-54
2021/05/18 17:16:39;;;;;;;;;;;;;;;19.70;41.52;99649.34;4417608;32;19987;-49
2021/05/18 17:19:05;;;;;;;;;;;;;;;20.13;40.56;99649.47;4416630;32;20349;-52
2021/05/18 17:21:31;;;;;;;;;;;;;;;20.41;40.32;99649.50;4424886;32;19949;-50
2021/05/18 17:23:56;;;;;;;;;;;;;;;20.60;40.02;99655.69;4425927;32;19958;-52
2021/05/18 17:26:23;;;;;;;;;;;;;;;20.74;39.72;99647.75;4424908;32;20056;-53
2021/05/18 17:28:48;;;;;;;;;;;;;;;20.86;39.82;99653.94;4424578;32;19946;-51
2021/05/18 17:31:15;;;;;;;;;;;;;;;20.90;39.86;99659.22;4426345;32;20006;-51